sensor_id;sensor_type;location;lat;lon;timestamp;pressure;altitude;pressure_sealevel;temperature;humidity
49611;BME280;35515;48.766;9.176;2022-12-29T00:01:21;97922.16;;;7.78;75.61
49611;BME280;35515;48.766;9.176;2022-12-29T00:03:47;97925.25;;;7.75;75.71
49611;BME280;35515;48.766;9.176;2022-12-29T00:06:15;97916.75;;;7.78;75.56
49611;BME280;35515;48.766;9.176;2022-12-29T00:08:42;97922.53;;;7.68;76.43
49611;BME280;35515;48.766;9.176;2022-12-29T00:11:10;97924.78;;;7.65;76.60
49611;BME280;35515;48.766;9.176;2022-12-29T00:13:37;97927.13;;;7.75;76.54
49611;BME280;35515;48.766;9.176;2022-12-29T00:16:21;97911.97;;;7.74;76.67
49611;BME280;35515;48.766;9.176;2022-12-29T00:18:48;97910.97;;;7.75;76.38
49611;BME280;35515;48.766;9.176;2022-12-29T00:21:17;97905.94;;;7.72;76.61
49611;BME280;35515;48.766;9.176;2022-12-29T00:24:01;97898.50;;;7.74;76.90
49611;BME280;35515;48.766;9.176;2022-12-29T00:26:47;97893.94;;;7.81;76.49
49611;BME280;35515;48.766;9.176;2022-12-29T00:29:31;97888.38;;;7.82;76.25
49611;BME280;35515;48.766;9.176;2022-12-29T00:32:15;97889.00;;;7.91;76.18
49611;BME280;35515;48.766;9.176;2022-12-29T00:34:59;97885.28;;;7.85;75.99
49611;BME280;35515;48.766;9.176;2022-12-29T00:37:37;97889.22;;;7.90;76.42
49611;BME280;35515;48.766;9.176;2022-12-29T00:40:23;97888.41;;;7.96;75.91
49611;BME280;35515;48.766;9.176;2022-12-29T00:43:07;97887.16;;;7.92;76.23
49611;BME280;35515;48.766;9.176;2022-12-29T00:45:50;97889.44;;;7.88;76.57
49611;BME280;35515;48.766;9.176;2022-12-29T00:48:17;97878.63;;;7.81;76.81
49611;BME280;35515;48.766;9.176;2022-12-29T00:51:04;97880.91;;;7.84;76.73
49611;BME280;35515;48.766;9.176;2022-12-29T00:53:31;97880.31;;;7.89;76.68
49611;BME280;35515;48.766;9.176;2022-12-29T00:55:58;97874.25;;;7.80;77.35
49611;BME280;35515;48.766;9.176;2022-12-29T00:58:27;97874.91;;;7.82;77.49
49611;BME280;35515;48.766;9.176;2022-12-29T01:01:00;97876.78;;;7.95;76.59
49611;BME280;35515;48.766;9.176;2022-12-29T01:03:27;97883.66;;;8.11;74.63
49611;BME280;35515;48.766;9.176;2022-12-29T01:05:53;97884.75;;;8.37;73.62
49611;BME280;35515;48.766;9.176;2022-12-29T01:08:20;97885.00;;;8.56;72.76
49611;BME280;35515;48.766;9.176;2022-12-29T01:10:57;97886.88;;;8.62;72.06
49611;BME280;35515;48.766;9.176;2022-12-29T01:13:23;97888.75;;;8.61;72.48
49611;BME280;35515;48.766;9.176;2022-12-29T01:15:50;97887.72;;;8.69;70.90
49611;BME280;35515;48.766;9.176;2022-12-29T01:18:16;97898.09;;;8.72;70.94
49611;BME280;35515;48.766;9.176;2022-12-29T01:20:43;97904.75;;;8.76;71.21
49611;BME280;35515;48.766;9.176;2022-12-29T01:23:09;97891.44;;;8.81;70.70
49611;BME280;35515;48.766;9.176;2022-12-29T01:25:36;97898.53;;;8.82;70.28
49611;BME280;35515;48.766;9.176;2022-12-29T01:28:04;97898.69;;;8.87;70.05
49611;BME280;35515;48.766;9.176;2022-12-29T01:30:32;97894.13;;;8.95;69.28
49611;BME280;35515;48.766;9.176;2022-12-29T01:32:59;97896.19;;;8.93;70.22
49611;BME280;35515;48.766;9.176;2022-12-29T01:35:25;97897.25;;;8.98;69.47
49611;BME280;35515;48.766;9.176;2022-12-29T01:37:52;97895.16;;;9.00;68.91
49611;BME280;35515;48.766;9.176;2022-12-29T01:40:18;97903.47;;;8.99;69.81
49611;BME280;35515;48.766;9.176;2022-12-29T01:42:45;97899.53;;;8.95;70.05
49611;BME280;35515;48.766;9.176;2022-12-29T01:45:13;97899.13;;;8.98;69.63
49611;BME280;35515;48.766;9.176;2022-12-29T01:47:43;97898.28;;;8.97;69.82
49611;BME280;35515;48.766;9.176;2022-12-29T01:50:15;97892.69;;;8.85;70.84
49611;BME280;35515;48.766;9.176;2022-12-29T01:52:48;97893.13;;;8.76;72.00
49611;BME280;35515;48.766;9.176;2022-12-29T01:55:17;97893.13;;;8.69;72.69
49611;BME280;35515;48.766;9.176;2022-12-29T01:57:46;97893.31;;;8.67;72.75
49611;BME280;35515;48.766;9.176;2022-12-29T02:00:16;97892.50;;;8.67;73.33
49611;BME280;35515;48.766;9.176;2022-12-29T02:02:46;97889.16;;;8.58;73.60
49611;BME280;35515;48.766;9.176;2022-12-29T02:05:17;97880.03;;;8.52;73.89
49611;BME280;35515;48.766;9.176;2022-12-29T02:07:47;97877.94;;;8.48;74.99
49611;BME280;35515;48.766;9.176;2022-12-29T02:10:15;97881.22;;;8.36;75.51
49611;BME280;35515;48.766;9.176;2022-12-29T02:12:41;97871.88;;;8.39;75.11
49611;BME280;35515;48.766;9.176;2022-12-29T02:15:08;97870.00;;;8.40;75.32
49611;BME280;35515;48.766;9.176;2022-12-29T02:17:52;97862.53;;;8.42;74.83
49611;BME280;35515;48.766;9.176;2022-12-29T02:20:47;97865.69;;;8.45;74.78
49611;BME280;35515;48.766;9.176;2022-12-29T02:23:30;97861.53;;;8.49;74.39
49611;BME280;35515;48.766;9.176;2022-12-29T02:26:14;97864.66;;;8.53;74.84
49611;BME280;35515;48.766;9.176;2022-12-29T02:29:03;97865.03;;;8.36;76.26
49611;BME280;35515;48.766;9.176;2022-12-29T02:31:40;97863.78;;;8.32;76.48
49611;BME280;35515;48.766;9.176;2022-12-29T02:34:20;97868.13;;;8.27;76.82
49611;BME280;35515;48.766;9.176;2022-12-29T02:36:57;97863.78;;;8.26;76.68
49611;BME280;35515;48.766;9.176;2022-12-29T02:39:33;97870.19;;;8.25;77.15
49611;BME280;35515;48.766;9.176;2022-12-29T02:42:07;97862.53;;;8.22;77.13
49611;BME280;35515;48.766;9.176;2022-12-29T02:44:47;97859.19;;;8.19;76.93
49611;BME280;35515;48.766;9.176;2022-12-29T02:47:22;97848.41;;;8.33;75.65
49611;BME280;35515;48.766;9.176;2022-12-29T02:49:56;97848.66;;;8.51;74.33
49611;BME280;35515;48.766;9.176;2022-12-29T02:52:27;97842.41;;;8.71;72.71
49611;BME280;35515;48.766;9.176;2022-12-29T02:54:55;97844.28;;;8.84;71.48
49611;BME280;35515;48.766;9.176;2022-12-29T02:57:30;97844.06;;;8.92;71.02
49611;BME280;35515;48.766;9.176;2022-12-29T03:00:01;97843.19;;;9.12;69.93
49611;BME280;35515;48.766;9.176;2022-12-29T03:05:18;97850.66;;;9.16;70.20
49611;BME280;35515;48.766;9.176;2022-12-29T03:07:54;97843.41;;;8.90;72.93
49611;BME280;35515;48.766;9.176;2022-12-29T03:10:31;97843.03;;;8.80;73.20
49611;BME280;35515;48.766;9.176;2022-12-29T03:13:06;97847.59;;;8.79;72.89
49611;BME280;35515;48.766;9.176;2022-12-29T03:16:00;97846.13;;;8.97;71.92
49611;BME280;35515;48.766;9.176;2022-12-29T03:18:36;97845.94;;;8.98;71.83
49611;BME280;35515;48.766;9.176;2022-12-29T03:21:08;97833.63;;;9.09;70.33
49611;BME280;35515;48.766;9.176;2022-12-29T03:23:37;97838.16;;;9.15;70.39
49611;BME280;35515;48.766;9.176;2022-12-29T03:26:08;97832.19;;;9.65;67.86
49611;BME280;35515;48.766;9.176;2022-12-29T03:28:40;97834.72;;;9.53;68.58
49611;BME280;35515;48.766;9.176;2022-12-29T03:31:08;97827.00;;;9.64;66.78
49611;BME280;35515;48.766;9.176;2022-12-29T03:33:36;97825.31;;;9.63;67.49
49611;BME280;35515;48.766;9.176;2022-12-29T03:36:08;97825.28;;;9.69;67.27
49611;BME280;35515;48.766;9.176;2022-12-29T03:38:42;97819.06;;;9.69;66.88
49611;BME280;35515;48.766;9.176;2022-12-29T03:41:13;97826.03;;;9.83;66.51
49611;BME280;35515;48.766;9.176;2022-12-29T03:43:41;97820.09;;;10.07;65.71
49611;BME280;35515;48.766;9.176;2022-12-29T03:46:07;97812.56;;;10.09;65.36
49611;BME280;35515;48.766;9.176;2022-12-29T03:48:34;97804.78;;;10.19;65.28
49611;BME280;35515;48.766;9.176;2022-12-29T03:51:00;97801.25;;;10.18;65.57
49611;BME280;35515;48.766;9.176;2022-12-29T03:53:28;97798.59;;;10.44;64.86
49611;BME280;35515;48.766;9.176;2022-12-29T03:55:55;97791.75;;;10.41;64.85
49611;BME280;35515;48.766;9.176;2022-12-29T03:58:21;97789.03;;;10.41;65.46
49611;BME280;35515;48.766;9.176;2022-12-29T04:00:48;97795.03;;;10.43;65.23
49611;BME280;35515;48.766;9.176;2022-12-29T04:03:14;97801.22;;;10.25;66.07
49611;BME280;35515;48.766;9.176;2022-12-29T04:05:41;97809.94;;;10.27;65.58
49611;BME280;35515;48.766;9.176;2022-12-29T04:08:07;97811.66;;;10.21;66.30
49611;BME280;35515;48.766;9.176;2022-12-29T04:10:35;97806.69;;;10.18;65.63
49611;BME280;35515;48.766;9.176;2022-12-29T04:13:01;97801.47;;;10.17;66.02
49611;BME280;35515;48.766;9.176;2022-12-29T04:15:28;97802.66;;;10.28;66.00
49611;BME280;35515;48.766;9.176;2022-12-29T04:17:54;97804.09;;;10.30;65.70
49611;BME280;35515;48.766;9.176;2022-12-29T04:20:21;97809.06;;;10.33;66.28
49611;BME280;35515;48.766;9.176;2022-12-29T04:23:05;97828.94;;;10.20;66.73
49611;BME280;35515;48.766;9.176;2022-12-29T04:25:34;97835.84;;;10.16;66.64
49611;BME280;35515;48.766;9.176;2022-12-29T04:28:01;97845.78;;;10.23;66.79
49611;BME280;35515;48.766;9.176;2022-12-29T04:30:27;97846.66;;;10.16;66.76
49611;BME280;35515;48.766;9.176;2022-12-29T04:32:54;97835.88;;;10.10;67.49
49611;BME280;35515;48.766;9.176;2022-12-29T04:35:20;97829.16;;;10.19;67.56
49611;BME280;35515;48.766;9.176;2022-12-29T04:37:47;97822.47;;;10.21;67.81
49611;BME280;35515;48.766;9.176;2022-12-29T04:40:13;97817.88;;;10.22;67.73
49611;BME280;35515;48.766;9.176;2022-12-29T04:42:41;97812.28;;;10.17;67.98
49611;BME280;35515;48.766;9.176;2022-12-29T04:45:08;97806.03;;;10.48;67.27
49611;BME280;35515;48.766;9.176;2022-12-29T04:47:35;97801.50;;;10.42;67.81
49611;BME280;35515;48.766;9.176;2022-12-29T04:50:02;97817.75;;;10.42;67.59
49611;BME280;35515;48.766;9.176;2022-12-29T04:52:28;97816.47;;;10.45;67.60
49611;BME280;35515;48.766;9.176;2022-12-29T04:54:55;97820.50;;;10.35;67.99
49611;BME280;35515;48.766;9.176;2022-12-29T04:57:21;97829.44;;;10.43;68.16
49611;BME280;35515;48.766;9.176;2022-12-29T04:59:49;97826.72;;;10.43;68.25
49611;BME280;35515;48.766;9.176;2022-12-29T05:02:16;97816.66;;;10.50;68.17
49611;BME280;35515;48.766;9.176;2022-12-29T05:04:43;97839.28;;;10.62;67.48
49611;BME280;35515;48.766;9.176;2022-12-29T05:07:09;97836.00;;;10.53;67.83
49611;BME280;35515;48.766;9.176;2022-12-29T05:09:36;97823.84;;;10.63;67.65
49611;BME280;35515;48.766;9.176;2022-12-29T05:12:03;97824.06;;;10.61;67.47
49611;BME280;35515;48.766;9.176;2022-12-29T05:14:30;97824.28;;;10.60;67.95
49611;BME280;35515;48.766;9.176;2022-12-29T05:16:57;97810.88;;;10.65;67.59
49611;BME280;35515;48.766;9.176;2022-12-29T05:19:24;97818.44;;;10.63;67.75
49611;BME280;35515;48.766;9.176;2022-12-29T05:21:50;97811.63;;;10.53;67.98
49611;BME280;35515;48.766;9.176;2022-12-29T05:24:17;97818.19;;;10.64;67.79
49611;BME280;35515;48.766;9.176;2022-12-29T05:26:44;97819.75;;;10.53;68.24
49611;BME280;35515;48.766;9.176;2022-12-29T05:29:10;97800.97;;;10.59;67.84
49611;BME280;35515;48.766;9.176;2022-12-29T05:31:37;97798.25;;;10.59;67.84
49611;BME280;35515;48.766;9.176;2022-12-29T05:34:05;97812.50;;;10.73;67.75
49611;BME280;35515;48.766;9.176;2022-12-29T05:36:31;97824.34;;;10.53;68.08
49611;BME280;35515;48.766;9.176;2022-12-29T05:38:58;97826.91;;;10.48;68.22
49611;BME280;35515;48.766;9.176;2022-12-29T05:41:24;97829.81;;;10.46;68.85
49611;BME280;35515;48.766;9.176;2022-12-29T05:43:51;97817.91;;;10.47;68.50
49611;BME280;35515;48.766;9.176;2022-12-29T05:46:17;97816.16;;;10.60;68.11
49611;BME280;35515;48.766;9.176;2022-12-29T05:48:45;97819.41;;;10.43;68.61
49611;BME280;35515;48.766;9.176;2022-12-29T05:51:13;97814.63;;;10.45;68.60
49611;BME280;35515;48.766;9.176;2022-12-29T05:53:39;97819.41;;;10.43;68.68
49611;BME280;35515;48.766;9.176;2022-12-29T05:56:06;97819.00;;;10.46;68.26
49611;BME280;35515;48.766;9.176;2022-12-29T05:58:33;97822.25;;;10.55;68.33
49611;BME280;35515;48.766;9.176;2022-12-29T06:00:59;97812.84;;;10.58;67.61
49611;BME280;35515;48.766;9.176;2022-12-29T06:03:26;97813.59;;;10.65;67.42
49611;BME280;35515;48.766;9.176;2022-12-29T06:05:52;97810.47;;;10.68;67.26
49611;BME280;35515;48.766;9.176;2022-12-29T06:08:20;97794.28;;;10.61;67.18
49611;BME280;35515;48.766;9.176;2022-12-29T06:10:47;97779.94;;;10.54;67.96
49611;BME280;35515;48.766;9.176;2022-12-29T06:13:13;97777.69;;;10.51;67.37
49611;BME280;35515;48.766;9.176;2022-12-29T06:15:40;97765.91;;;10.64;66.83
49611;BME280;35515;48.766;9.176;2022-12-29T06:18:07;97758.75;;;10.69;66.39
49611;BME280;35515;48.766;9.176;2022-12-29T06:20:34;97759.75;;;10.75;66.22
49611;BME280;35515;48.766;9.176;2022-12-29T06:23:00;97757.66;;;10.77;65.88
49611;BME280;35515;48.766;9.176;2022-12-29T06:25:28;97772.09;;;10.90;65.57
49611;BME280;35515;48.766;9.176;2022-12-29T06:27:57;97786.59;;;10.77;65.83
49611;BME280;35515;48.766;9.176;2022-12-29T06:30:24;97785.03;;;10.69;66.21
49611;BME280;35515;48.766;9.176;2022-12-29T06:32:50;97786.78;;;10.57;66.73
49611;BME280;35515;48.766;9.176;2022-12-29T06:35:17;97788.91;;;10.54;65.97
49611;BME280;35515;48.766;9.176;2022-12-29T06:37:44;97793.00;;;10.39;66.96
49611;BME280;35515;48.766;9.176;2022-12-29T06:40:11;97774.81;;;10.46;66.23
49611;BME280;35515;48.766;9.176;2022-12-29T06:42:39;97788.59;;;10.44;65.91
49611;BME280;35515;48.766;9.176;2022-12-29T06:45:06;97788.03;;;10.35;66.42
49611;BME280;35515;48.766;9.176;2022-12-29T06:47:33;97798.66;;;10.37;65.66
49611;BME280;35515;48.766;9.176;2022-12-29T06:50:00;97797.38;;;10.33;66.05
49611;BME280;35515;48.766;9.176;2022-12-29T06:52:27;97792.16;;;10.38;65.40
49611;BME280;35515;48.766;9.176;2022-12-29T06:54:53;97779.03;;;10.42;65.40
49611;BME280;35515;48.766;9.176;2022-12-29T06:57:20;97778.06;;;10.29;65.28
49611;BME280;35515;48.766;9.176;2022-12-29T06:59:48;97783.69;;;10.28;65.62
49611;BME280;35515;48.766;9.176;2022-12-29T07:02:15;97779.50;;;10.32;64.66
49611;BME280;35515;48.766;9.176;2022-12-29T07:04:43;97783.25;;;10.31;65.16
49611;BME280;35515;48.766;9.176;2022-12-29T07:07:09;97787.38;;;10.40;64.88
49611;BME280;35515;48.766;9.176;2022-12-29T07:09:36;97787.50;;;10.20;65.87
49611;BME280;35515;48.766;9.176;2022-12-29T07:12:03;97780.47;;;10.44;64.31
49611;BME280;35515;48.766;9.176;2022-12-29T07:14:29;97782.50;;;10.24;65.44
49611;BME280;35515;48.766;9.176;2022-12-29T07:16:57;97792.53;;;10.16;65.56
49611;BME280;35515;48.766;9.176;2022-12-29T07:19:24;97792.13;;;10.13;65.71
49611;BME280;35515;48.766;9.176;2022-12-29T07:21:50;97794.41;;;10.16;65.93
49611;BME280;35515;48.766;9.176;2022-12-29T07:24:17;97797.94;;;10.16;65.50
49611;BME280;35515;48.766;9.176;2022-12-29T07:26:43;97799.94;;;10.28;65.37
49611;BME280;35515;48.766;9.176;2022-12-29T07:29:10;97793.16;;;10.18;65.66
49611;BME280;35515;48.766;9.176;2022-12-29T07:31:36;97796.56;;;10.32;65.00
49611;BME280;35515;48.766;9.176;2022-12-29T07:34:04;97798.72;;;10.24;65.18
49611;BME280;35515;48.766;9.176;2022-12-29T07:36:30;97813.03;;;10.31;65.12
49611;BME280;35515;48.766;9.176;2022-12-29T07:38:57;97802.66;;;10.28;65.33
49611;BME280;35515;48.766;9.176;2022-12-29T07:41:23;97799.09;;;10.27;65.44
49611;BME280;35515;48.766;9.176;2022-12-29T07:43:50;97802.47;;;10.23;65.77
49611;BME280;35515;48.766;9.176;2022-12-29T07:46:16;97803.34;;;10.16;66.01
49611;BME280;35515;48.766;9.176;2022-12-29T07:48:43;97813.72;;;10.19;66.18
49611;BME280;35515;48.766;9.176;2022-12-29T07:51:11;97814.13;;;10.23;65.74
49611;BME280;35515;48.766;9.176;2022-12-29T07:53:37;97812.47;;;10.22;66.12
49611;BME280;35515;48.766;9.176;2022-12-29T07:56:04;97819.13;;;10.19;66.64
49611;BME280;35515;48.766;9.176;2022-12-29T07:58:31;97801.25;;;10.18;66.61
49611;BME280;35515;48.766;9.176;2022-12-29T08:00:58;97798.28;;;10.27;66.47
49611;BME280;35515;48.766;9.176;2022-12-29T08:03:24;97796.63;;;10.26;66.11
49611;BME280;35515;48.766;9.176;2022-12-29T08:05:52;97806.09;;;10.42;65.41
49611;BME280;35515;48.766;9.176;2022-12-29T08:08:20;97809.06;;;10.33;66.06
49611;BME280;35515;48.766;9.176;2022-12-29T08:10:46;97813.63;;;10.40;66.16
49611;BME280;35515;48.766;9.176;2022-12-29T08:13:13;97815.22;;;10.47;65.73
49611;BME280;35515;48.766;9.176;2022-12-29T08:15:40;97826.13;;;10.34;66.27
49611;BME280;35515;48.766;9.176;2022-12-29T08:18:06;97834.97;;;10.23;66.81
49611;BME280;35515;48.766;9.176;2022-12-29T08:20:33;97842.63;;;10.26;67.08
49611;BME280;35515;48.766;9.176;2022-12-29T08:22:59;97849.53;;;10.21;67.70
49611;BME280;35515;48.766;9.176;2022-12-29T08:25:27;97834.59;;;10.12;68.18
49611;BME280;35515;48.766;9.176;2022-12-29T08:27:54;97845.00;;;10.15;68.18
49611;BME280;35515;48.766;9.176;2022-12-29T08:30:20;97833.34;;;10.15;68.10
49611;BME280;35515;48.766;9.176;2022-12-29T08:32:47;97836.06;;;10.15;68.82
49611;BME280;35515;48.766;9.176;2022-12-29T08:35:13;97828.34;;;10.18;68.13
49611;BME280;35515;48.766;9.176;2022-12-29T08:37:40;97820.50;;;10.35;67.01
49611;BME280;35515;48.766;9.176;2022-12-29T08:40:08;97824.91;;;10.30;67.51
49611;BME280;35515;48.766;9.176;2022-12-29T08:42:36;97826.13;;;10.34;67.78
49611;BME280;35515;48.766;9.176;2022-12-29T08:45:03;97822.28;;;10.48;67.19
49611;BME280;35515;48.766;9.176;2022-12-29T08:47:29;97809.38;;;10.50;67.11
49611;BME280;35515;48.766;9.176;2022-12-29T08:49:56;97808.69;;;10.55;66.64
49611;BME280;35515;48.766;9.176;2022-12-29T08:52:22;97823.63;;;10.64;66.01
49611;BME280;35515;48.766;9.176;2022-12-29T08:54:49;97820.56;;;10.54;66.42
49611;BME280;35515;48.766;9.176;2022-12-29T08:57:15;97812.13;;;10.69;65.94
49611;BME280;35515;48.766;9.176;2022-12-29T08:59:43;97823.03;;;10.62;66.18
49611;BME280;35515;48.766;9.176;2022-12-29T09:02:10;97828.63;;;10.61;66.19
49611;BME280;35515;48.766;9.176;2022-12-29T09:04:36;97826.00;;;10.54;66.46
49611;BME280;35515;48.766;9.176;2022-12-29T09:07:03;97827.69;;;10.74;66.00
49611;BME280;35515;48.766;9.176;2022-12-29T09:09:30;97833.63;;;10.89;64.93
49611;BME280;35515;48.766;9.176;2022-12-29T09:11:57;97852.41;;;10.84;65.23
49611;BME280;35515;48.766;9.176;2022-12-29T09:14:23;97859.88;;;10.88;64.99
49611;BME280;35515;48.766;9.176;2022-12-29T09:16:52;97862.97;;;10.92;65.00
49611;BME280;35515;48.766;9.176;2022-12-29T09:19:36;97854.44;;;10.88;65.15
49611;BME280;35515;48.766;9.176;2022-12-29T09:22:02;97863.19;;;10.91;64.99
49611;BME280;35515;48.766;9.176;2022-12-29T09:24:29;97854.84;;;10.92;65.63
49611;BME280;35515;48.766;9.176;2022-12-29T09:26:56;97855.22;;;10.96;64.79
49611;BME280;35515;48.766;9.176;2022-12-29T09:29:22;97864.13;;;11.21;63.74
49611;BME280;35515;48.766;9.176;2022-12-29T09:31:49;97860.06;;;11.12;64.25
49611;BME280;35515;48.766;9.176;2022-12-29T09:34:17;97861.25;;;11.16;63.90
49611;BME280;35515;48.766;9.176;2022-12-29T09:36:43;97864.59;;;11.18;64.15
49611;BME280;35515;48.766;9.176;2022-12-29T09:39:10;97875.44;;;11.18;67.12
49611;BME280;35515;48.766;9.176;2022-12-29T09:41:42;97881.59;;;11.26;63.82
49611;BME280;35515;48.766;9.176;2022-12-29T09:44:16;97861.75;;;11.32;63.91
49611;BME280;35515;48.766;9.176;2022-12-29T09:46:46;97868.34;;;11.17;64.08
49611;BME280;35515;48.766;9.176;2022-12-29T09:49:23;97858.25;;;11.25;64.15
49611;BME280;35515;48.766;9.176;2022-12-29T09:51:53;97867.06;;;11.20;64.13
49611;BME280;35515;48.766;9.176;2022-12-29T09:54:33;97850.28;;;11.30;63.95
49611;BME280;35515;48.766;9.176;2022-12-29T09:57:03;97858.72;;;11.40;63.37
49611;BME280;35515;48.766;9.176;2022-12-29T09:59:38;97856.50;;;11.67;62.97
49611;BME280;35515;48.766;9.176;2022-12-29T10:02:16;97860.97;;;11.62;62.79
49611;BME280;35515;48.766;9.176;2022-12-29T10:04:48;97862.31;;;11.52;63.23
49611;BME280;35515;48.766;9.176;2022-12-29T10:07:24;97865.81;;;11.60;62.84
49611;BME280;35515;48.766;9.176;2022-12-29T10:09:57;97867.00;;;11.64;63.23
49611;BME280;35515;48.766;9.176;2022-12-29T10:12:34;97848.84;;;11.46;63.81
49611;BME280;35515;48.766;9.176;2022-12-29T10:15:10;97858.94;;;11.57;63.54
49611;BME280;35515;48.766;9.176;2022-12-29T10:17:47;97856.50;;;11.49;63.85
49611;BME280;35515;48.766;9.176;2022-12-29T10:20:27;97861.66;;;11.57;63.89
49611;BME280;35515;48.766;9.176;2022-12-29T10:23:09;97863.22;;;11.65;63.51
49611;BME280;35515;48.766;9.176;2022-12-29T10:25:42;97856.22;;;11.76;63.27
49611;BME280;35515;48.766;9.176;2022-12-29T10:28:17;97860.06;;;11.68;63.81
49611;BME280;35515;48.766;9.176;2022-12-29T10:30:47;97867.00;;;11.64;64.26
49611;BME280;35515;48.766;9.176;2022-12-29T10:33:18;97861.34;;;11.65;64.08
49611;BME280;35515;48.766;9.176;2022-12-29T10:35:48;97861.28;;;11.53;65.01
49611;BME280;35515;48.766;9.176;2022-12-29T10:38:22;97866.25;;;11.57;65.11
49611;BME280;35515;48.766;9.176;2022-12-29T10:40:54;97858.16;;;11.68;64.90
49611;BME280;35515;48.766;9.176;2022-12-29T10:43:25;97854.94;;;11.60;65.44
49611;BME280;35515;48.766;9.176;2022-12-29T10:45:53;97857.41;;;11.80;64.30
49611;BME280;35515;48.766;9.176;2022-12-29T10:48:22;97859.28;;;11.79;64.30
49611;BME280;35515;48.766;9.176;2022-12-29T10:50:53;97849.19;;;11.86;64.10
49611;BME280;35515;48.766;9.176;2022-12-29T10:53:24;97849.03;;;12.00;63.32
49611;BME280;35515;48.766;9.176;2022-12-29T10:55:53;97850.13;;;12.11;63.08
49611;BME280;35515;48.766;9.176;2022-12-29T10:58:21;97850.13;;;12.11;63.14
49611;BME280;35515;48.766;9.176;2022-12-29T11:00:51;97859.63;;;12.32;62.45
49611;BME280;35515;48.766;9.176;2022-12-29T11:03:41;97855.16;;;12.37;62.35
49611;BME280;35515;48.766;9.176;2022-12-29T11:06:18;97862.59;;;12.42;61.93
49611;BME280;35515;48.766;9.176;2022-12-29T11:08:53;97861.16;;;12.28;62.30
49611;BME280;35515;48.766;9.176;2022-12-29T11:11:24;97853.63;;;12.42;62.25
49611;BME280;35515;48.766;9.176;2022-12-29T11:13:56;97856.81;;;12.38;62.32
49611;BME280;35515;48.766;9.176;2022-12-29T11:16:28;97863.78;;;12.34;62.51
49611;BME280;35515;48.766;9.176;2022-12-29T11:18:57;97872.84;;;12.28;61.97
49611;BME280;35515;48.766;9.176;2022-12-29T11:21:30;97871.56;;;12.31;63.07
49611;BME280;35515;48.766;9.176;2022-12-29T11:23:58;97875.22;;;12.36;62.34
49611;BME280;35515;48.766;9.176;2022-12-29T11:26:25;97859.59;;;12.20;63.45
49611;BME280;35515;48.766;9.176;2022-12-29T11:29:20;97871.03;;;12.10;63.50
49611;BME280;35515;48.766;9.176;2022-12-29T11:31:49;97865.50;;;12.17;62.82
49611;BME280;35515;48.766;9.176;2022-12-29T11:34:21;97882.28;;;12.26;62.90
49611;BME280;35515;48.766;9.176;2022-12-29T11:36:51;97887.09;;;12.12;64.08
49611;BME280;35515;48.766;9.176;2022-12-29T11:39:29;97878.03;;;12.30;63.15
49611;BME280;35515;48.766;9.176;2022-12-29T11:41:58;97882.94;;;12.51;63.49
49611;BME280;35515;48.766;9.176;2022-12-29T11:44:25;97884.47;;;12.47;64.52
49611;BME280;35515;48.766;9.176;2022-12-29T11:46:52;97882.13;;;12.20;67.86
49611;BME280;35515;48.766;9.176;2022-12-29T11:49:20;97874.88;;;12.33;68.52
49611;BME280;35515;48.766;9.176;2022-12-29T11:51:50;97887.03;;;12.30;68.43
49611;BME280;35515;48.766;9.176;2022-12-29T11:54:23;97883.38;;;12.06;69.94
49611;BME280;35515;48.766;9.176;2022-12-29T11:56:50;97884.38;;;11.93;71.51
49611;BME280;35515;48.766;9.176;2022-12-29T11:59:42;97887.31;;;11.92;70.59
49611;BME280;35515;48.766;9.176;2022-12-29T12:02:40;97878.00;;;11.69;72.20
49611;BME280;35515;48.766;9.176;2022-12-29T12:05:13;97869.88;;;11.69;72.50
49611;BME280;35515;48.766;9.176;2022-12-29T12:07:46;97870.22;;;11.73;72.41
49611;BME280;35515;48.766;9.176;2022-12-29T12:10:19;97874.06;;;11.65;73.56
49611;BME280;35515;48.766;9.176;2022-12-29T12:12:51;97871.50;;;11.70;72.92
49611;BME280;35515;48.766;9.176;2022-12-29T12:15:24;97863.34;;;11.88;71.08
49611;BME280;35515;48.766;9.176;2022-12-29T12:17:56;97864.19;;;11.89;71.01
49611;BME280;35515;48.766;9.176;2022-12-29T12:20:31;97856.41;;;11.74;72.74
49611;BME280;35515;48.766;9.176;2022-12-29T12:23:08;97851.75;;;11.81;70.83
49611;BME280;35515;48.766;9.176;2022-12-29T12:25:42;97859.31;;;12.10;68.87
49611;BME280;35515;48.766;9.176;2022-12-29T12:28:19;97862.47;;;11.95;69.72
49611;BME280;35515;48.766;9.176;2022-12-29T12:30:51;97861.81;;;12.11;68.46
49611;BME280;35515;48.766;9.176;2022-12-29T12:33:26;97871.94;;;12.04;68.78
49611;BME280;35515;48.766;9.176;2022-12-29T12:36:09;97853.31;;;12.08;69.10
49611;BME280;35515;48.766;9.176;2022-12-29T12:38:46;97858.75;;;12.19;69.39
49611;BME280;35515;48.766;9.176;2022-12-29T12:41:26;97862.66;;;12.12;70.21
49611;BME280;35515;48.766;9.176;2022-12-29T12:44:01;97861.72;;;12.18;72.01
49611;BME280;35515;48.766;9.176;2022-12-29T12:46:58;97846.00;;;11.90;73.59
49611;BME280;35515;48.766;9.176;2022-12-29T12:52:27;97844.16;;;11.71;75.46
49611;BME280;35515;48.766;9.176;2022-12-29T12:55:16;97840.22;;;11.67;75.74
49611;BME280;35515;48.766;9.176;2022-12-29T12:57:49;97843.00;;;11.79;75.06
49611;BME280;35515;48.766;9.176;2022-12-29T13:00:19;97837.13;;;11.82;75.40
49611;BME280;35515;48.766;9.176;2022-12-29T13:02:57;97829.03;;;11.64;76.54
49611;BME280;35515;48.766;9.176;2022-12-29T13:05:38;97828.97;;;11.52;76.78
49611;BME280;35515;48.766;9.176;2022-12-29T13:08:48;97831.69;;;11.82;76.36
49611;BME280;35515;48.766;9.176;2022-12-29T13:11:24;97836.81;;;11.91;76.54
49611;BME280;35515;48.766;9.176;2022-12-29T13:14:06;97832.06;;;11.86;75.89
49611;BME280;35515;48.766;9.176;2022-12-29T13:16:42;97826.38;;;11.76;76.39
49611;BME280;35515;48.766;9.176;2022-12-29T13:19:17;97839.03;;;11.94;74.96
49611;BME280;35515;48.766;9.176;2022-12-29T13:21:56;97835.47;;;12.00;74.18
49611;BME280;35515;48.766;9.176;2022-12-29T13:24:26;97836.19;;;11.88;74.98
49611;BME280;35515;48.766;9.176;2022-12-29T13:27:00;97826.19;;;11.89;74.56